Durban, South Africa

3:12 PM SAST on December 19, 2014 (GMT +0200)
Brighton Beach, Durban | Change Station
CLOSE
Current Station
Personal Weather Station
Location: Durban, KWAZULU-NATAL
Elevation: 289 ft
Nearby Weather Stations

Elev 289 ft 29.93 °S, 31.01 °E | Updated 4 seconds ago

Clear
Clear
77.2 °F
Feels Like 79 °F
N
5.8
Wind Variable Wind from ENE
Gusts 9.8 mph

Today
High -- | Low -- °F
--% Chance of Precip.
Yesterday
High -- | Low -- °F
Precip. -- in
4:50 AM 6:55 PM
Waning Crescent, 8% visible
Pressure 29.83 in
Visibility -9999.0 miles
Clouds
Heat Index 79 °F
Dew Point 69 °F
Humidity 75%
Rainfall 0.00 in
Snow Depth Not available.
UV Not available.
Pollen Not available.
Air Quality Not available.
Flu Activity Not available.
METAR FALE 191300Z 10008KT 060V130 CAVOK 25/20 Q1010 NOSIG

More Conditions Fewer Conditions

Pressure 29.83 in
Visibility -9999.0 miles
Clouds
Heat Index 79 °F
Dew Point 69 °F
Humidity 75%
Rainfall 0.00 in
Snow Depth Not available.
UV Not available.
Pollen Not available.
Air Quality Not available.
Flu Activity Not available.
METAR FALE 191300Z 10008KT 060V130 CAVOK 25/20 Q1010 NOSIG

More Conditions Fewer Conditions

10-Day Weather Forecast

Almanac

Astronomy

Dec. 19, 2014 Rise Set
Actual Time
Civil Twilight
Nautical Twilight
Astronomical Twilight
Moon
Length of Visible Light
Length of Day
Tomorrow will be .
, % of the Moon is Illuminated

Today's Extremes

Country Highs Country Lows

Community

WunderPhotos

Upload Photos

1,778,985 photos uploaded!

WunderBlogs® & News

Nearby

Air Quality

  Air Quality AQ Index Pollutant
Not available.

Snow Depth

Station Depth Elevation

Earthquake Activity

City Distance Mag. Time & Date
Minimum magnitude displayed is 2.5.

Coastal Water Temperatures

Place Temperature

Nearby Weather Stations